Time;durP1;ratioP1;P1;durP2;ratioP2;P2;SDS_P1;SDS_P2;PMS_P1;PMS_P2;Temp;Humidity;BMP_temperature;BMP_pressure;BME280_temperature;BME280_humidity;BME280_pressure;Samples;Min_cycle;Max_cycle;Signal;HPM_P1;HPM_P2
2022/11/15 00:01:37;;;;;;;;;;;24.00;36.30;;;;;;484083;246;2152;-74
2022/11/15 00:03:38;;;;;;;;;;;24.00;36.30;;;;;;484224;246;1229;-74
2022/11/15 00:05:39;;;;;;;;;;;24.00;36.20;;;;;;484093;246;1166;-74
2022/11/15 00:07:41;;;;;;;;;;;23.90;36.10;;;;;;484125;246;1177;-75
2022/11/15 00:09:42;;;;;;;;;;;23.80;36.00;;;;;;484081;246;1201;-74
2022/11/15 00:11:43;;;;;;;;;;;23.80;36.20;;;;;;484142;246;1196;-74
2022/11/15 00:13:45;;;;;;;;;;;23.80;36.00;;;;;;484062;246;1120;-74
2022/11/15 00:15:46;;;;;;;;;;;23.90;35.80;;;;;;484153;246;1339;-74
2022/11/15 00:17:47;;;;;;;;;;;23.90;35.60;;;;;;484110;246;1158;-74
2022/11/15 00:19:49;;;;;;;;;;;24.00;35.40;;;;;;484167;246;1182;-74
2022/11/15 00:21:50;;;;;;;;;;;24.00;35.30;;;;;;484045;246;2175;-74
2022/11/15 00:23:51;;;;;;;;;;;24.10;35.20;;;;;;484108;242;1264;-74
2022/11/15 00:25:53;;;;;;;;;;;24.10;35.00;;;;;;484146;246;1247;-74
2022/11/15 00:27:54;;;;;;;;;;;24.20;34.90;;;;;;484128;246;1227;-74
2022/11/15 00:29:55;;;;;;;;;;;24.20;34.80;;;;;;484062;246;1205;-74
2022/11/15 00:31:57;;;;;;;;;;;24.20;34.80;;;;;;484122;246;1165;-74
2022/11/15 00:33:58;;;;;;;;;;;24.20;34.80;;;;;;484032;246;1198;-74
2022/11/15 00:35:59;;;;;;;;;;;24.30;35.20;;;;;;484181;246;1143;-74
2022/11/15 00:38:01;;;;;;;;;;;24.30;34.80;;;;;;484097;246;1188;-74
2022/11/15 00:40:02;;;;;;;;;;;24.40;34.80;;;;;;484200;246;1216;-74
2022/11/15 00:42:03;;;;;;;;;;;24.40;35.00;;;;;;484144;246;2165;-74
2022/11/15 00:44:05;;;;;;;;;;;24.40;35.60;;;;;;484109;246;1237;-74
2022/11/15 00:46:07;;;;;;;;;;;24.40;35.30;;;;;;484219;246;1152;-75
2022/11/15 00:48:07;;;;;;;;;;;24.40;35.00;;;;;;484140;246;1419;-75
2022/11/15 00:50:09;;;;;;;;;;;24.40;35.60;;;;;;484175;246;1218;-74
2022/11/15 00:52:10;;;;;;;;;;;24.40;35.30;;;;;;484236;246;1203;-74
2022/11/15 00:54:11;;;;;;;;;;;24.40;35.90;;;;;;484143;246;1209;-74
2022/11/15 00:56:13;;;;;;;;;;;24.30;35.50;;;;;;484094;246;1301;-74
2022/11/15 00:58:14;;;;;;;;;;;24.40;36.10;;;;;;484154;246;1147;-74
2022/11/15 01:00:15;;;;;;;;;;;24.40;35.80;;;;;;484162;246;1205;-74
2022/11/15 01:02:17;;;;;;;;;;;24.40;35.90;;;;;;484103;246;2177;-74
2022/11/15 01:04:18;;;;;;;;;;;24.40;35.90;;;;;;484122;246;1275;-74
2022/11/15 01:06:19;;;;;;;;;;;24.40;35.90;;;;;;483948;246;1231;-75
2022/11/15 01:08:21;;;;;;;;;;;24.40;35.90;;;;;;483671;246;1315;-74
2022/11/15 01:10:22;;;;;;;;;;;24.40;36.00;;;;;;483876;246;1192;-74
2022/11/15 01:12:23;;;;;;;;;;;24.40;35.80;;;;;;484208;246;1143;-74
2022/11/15 01:14:25;;;;;;;;;;;24.40;36.10;;;;;;484109;246;1108;-74
2022/11/15 01:16:26;;;;;;;;;;;24.40;35.70;;;;;;484106;246;1257;-74
2022/11/15 01:18:27;;;;;;;;;;;24.40;35.90;;;;;;484120;246;1240;-74
2022/11/15 01:20:29;;;;;;;;;;;24.40;36.30;;;;;;484169;246;1203;-75
2022/11/15 01:22:30;;;;;;;;;;;24.40;35.80;;;;;;484076;246;2180;-74
2022/11/15 01:24:31;;;;;;;;;;;24.30;36.10;;;;;;484174;246;1210;-74
2022/11/15 01:26:33;;;;;;;;;;;24.30;35.80;;;;;;484211;246;1184;-74
2022/11/15 01:28:34;;;;;;;;;;;24.20;36.00;;;;;;484131;246;1186;-74
2022/11/15 01:30:35;;;;;;;;;;;24.20;36.20;;;;;;484122;246;1232;-74
2022/11/15 01:32:37;;;;;;;;;;;24.20;36.00;;;;;;484098;246;1354;-74
2022/11/15 01:34:38;;;;;;;;;;;24.20;36.10;;;;;;484016;246;1154;-74
2022/11/15 01:36:39;;;;;;;;;;;24.20;36.10;;;;;;484128;246;1128;-75
2022/11/15 01:38:41;;;;;;;;;;;24.10;36.10;;;;;;484147;246;1252;-75
2022/11/15 01:40:42;;;;;;;;;;;24.10;36.30;;;;;;484125;246;1157;-74
2022/11/15 01:42:43;;;;;;;;;;;23.90;35.80;;;;;;484137;246;2164;-74
2022/11/15 01:44:45;;;;;;;;;;;23.80;36.00;;;;;;484160;246;1191;-74
2022/11/15 01:46:46;;;;;;;;;;;23.80;36.00;;;;;;484219;246;1221;-74
2022/11/15 01:48:47;;;;;;;;;;;23.80;36.30;;;;;;484217;246;1384;-74
2022/11/15 01:50:49;;;;;;;;;;;23.90;35.80;;;;;;484208;246;1169;-75
2022/11/15 01:52:50;;;;;;;;;;;23.80;35.80;;;;;;484137;246;1152;-75
2022/11/15 01:54:51;;;;;;;;;;;23.90;35.70;;;;;;484230;246;1240;-74
2022/11/15 01:56:53;;;;;;;;;;;23.90;35.70;;;;;;484088;246;1164;-74
2022/11/15 01:58:54;;;;;;;;;;;24.00;35.50;;;;;;484122;246;1253;-74
2022/11/15 02:00:55;;;;;;;;;;;24.00;35.40;;;;;;484131;246;1161;-74
2022/11/15 02:02:57;;;;;;;;;;;24.10;35.30;;;;;;484166;246;2199;-74
2022/11/15 02:04:58;;;;;;;;;;;24.10;35.10;;;;;;484086;246;1136;-74
2022/11/15 02:06:59;;;;;;;;;;;24.20;35.10;;;;;;484115;246;1229;-74
2022/11/15 02:09:01;;;;;;;;;;;24.20;35.30;;;;;;484031;246;1186;-74
2022/11/15 02:11:02;;;;;;;;;;;24.30;35.50;;;;;;484148;246;1239;-74
2022/11/15 02:13:03;;;;;;;;;;;24.20;35.10;;;;;;484147;246;1161;-74
2022/11/15 02:15:05;;;;;;;;;;;24.30;35.10;;;;;;484196;246;1097;-74
2022/11/15 02:17:06;;;;;;;;;;;24.20;35.00;;;;;;484192;246;1208;-74
2022/11/15 02:19:07;;;;;;;;;;;24.30;34.90;;;;;;484115;246;1193;-74
2022/11/15 02:21:09;;;;;;;;;;;24.30;35.00;;;;;;484083;242;1304;-74
2022/11/15 02:23:10;;;;;;;;;;;24.30;35.60;;;;;;484138;246;2148;-74
2022/11/15 02:25:11;;;;;;;;;;;24.30;35.00;;;;;;484178;246;1162;-74
2022/11/15 02:27:13;;;;;;;;;;;24.30;35.20;;;;;;484255;246;1249;-74
2022/11/15 02:29:14;;;;;;;;;;;24.30;35.70;;;;;;484043;246;1180;-74
2022/11/15 02:31:15;;;;;;;;;;;24.20;35.20;;;;;;484282;246;1168;-74
2022/11/15 02:33:16;;;;;;;;;;;24.30;35.90;;;;;;484027;246;1228;-74
2022/11/15 02:35:18;;;;;;;;;;;24.30;35.40;;;;;;483971;246;1226;-74
2022/11/15 02:37:19;;;;;;;;;;;24.30;36.30;;;;;;484150;246;1258;-74
2022/11/15 02:39:20;;;;;;;;;;;24.30;35.70;;;;;;484174;246;1197;-74
2022/11/15 02:41:22;;;;;;;;;;;24.30;36.30;;;;;;483898;246;1225;-74
2022/11/15 02:45:42;;;;;;;;;;;24.30;36.40;;;;;;484086;246;1123;-74
2022/11/15 02:47:44;;;;;;;;;;;24.30;35.90;;;;;;484062;246;1148;-74
2022/11/15 02:49:45;;;;;;;;;;;24.30;36.00;;;;;;484137;246;1200;-74
2022/11/15 02:51:46;;;;;;;;;;;24.30;36.20;;;;;;484178;246;1198;-74
2022/11/15 02:53:48;;;;;;;;;;;24.30;35.90;;;;;;484106;246;1184;-74
2022/11/15 02:55:49;;;;;;;;;;;24.20;36.10;;;;;;484132;246;1157;-74
2022/11/15 02:57:50;;;;;;;;;;;24.20;35.80;;;;;;484066;246;1286;-74
2022/11/15 02:59:52;;;;;;;;;;;24.20;36.20;;;;;;484155;246;1081;-74
2022/11/15 03:01:53;;;;;;;;;;;24.20;36.30;;;;;;484165;246;2164;-74
2022/11/15 03:03:54;;;;;;;;;;;24.20;36.20;;;;;;484128;246;1137;-74
2022/11/15 03:05:56;;;;;;;;;;;24.30;36.20;;;;;;484044;246;1156;-74
2022/11/15 03:07:57;;;;;;;;;;;24.30;36.20;;;;;;484335;246;1140;-74
2022/11/15 03:09:58;;;;;;;;;;;24.30;36.10;;;;;;484180;246;1209;-75
2022/11/15 03:12:00;;;;;;;;;;;24.30;36.20;;;;;;484190;246;1096;-74
2022/11/15 03:14:01;;;;;;;;;;;24.30;36.10;;;;;;484199;246;1134;-74
2022/11/15 03:16:02;;;;;;;;;;;24.40;36.30;;;;;;484225;246;1210;-74
2022/11/15 03:18:03;;;;;;;;;;;24.40;35.80;;;;;;484104;246;1248;-74
2022/11/15 03:20:05;;;;;;;;;;;24.40;36.10;;;;;;484149;246;1149;-74
2022/11/15 03:22:06;;;;;;;;;;;24.50;35.60;;;;;;484165;246;2161;-74
2022/11/15 03:24:07;;;;;;;;;;;24.60;36.00;;;;;;484218;246;1164;-74
2022/11/15 03:26:09;;;;;;;;;;;24.60;35.80;;;;;;484217;246;1149;-75
2022/11/15 03:28:10;;;;;;;;;;;24.60;35.70;;;;;;484189;246;1228;-74
2022/11/15 03:30:11;;;;;;;;;;;24.50;35.80;;;;;;484139;246;1167;-74
2022/11/15 03:32:13;;;;;;;;;;;24.50;35.90;;;;;;484245;246;1285;-74
2022/11/15 03:34:14;;;;;;;;;;;24.50;35.70;;;;;;484307;246;1187;-74
2022/11/15 03:36:15;;;;;;;;;;;24.40;36.10;;;;;;484087;246;1140;-75
2022/11/15 03:38:17;;;;;;;;;;;24.30;35.80;;;;;;484130;246;1171;-74
2022/11/15 03:40:18;;;;;;;;;;;24.20;36.40;;;;;;484311;242;1135;-74
2022/11/15 03:42:19;;;;;;;;;;;24.10;36.40;;;;;;484259;246;2165;-74
2022/11/15 03:44:21;;;;;;;;;;;24.00;36.20;;;;;;484187;246;1312;-74
2022/11/15 03:46:22;;;;;;;;;;;23.90;36.80;;;;;;484161;246;1273;-74
2022/11/15 03:48:23;;;;;;;;;;;23.90;36.80;;;;;;484261;246;1250;-74
2022/11/15 03:50:25;;;;;;;;;;;23.90;36.30;;;;;;484140;246;1307;-74
2022/11/15 03:52:26;;;;;;;;;;;24.00;36.50;;;;;;484202;246;1159;-74
2022/11/15 03:54:27;;;;;;;;;;;24.00;36.50;;;;;;484173;246;1170;-74
2022/11/15 03:56:29;;;;;;;;;;;24.00;36.80;;;;;;484152;246;1214;-74
2022/11/15 03:58:30;;;;;;;;;;;24.00;36.30;;;;;;484147;246;1218;-74
2022/11/15 04:00:31;;;;;;;;;;;24.00;36.40;;;;;;484185;246;1125;-74
2022/11/15 04:02:33;;;;;;;;;;;24.10;36.00;;;;;;484191;246;2192;-74
2022/11/15 04:04:34;;;;;;;;;;;24.10;36.10;;;;;;484034;246;1139;-74
2022/11/15 04:06:35;;;;;;;;;;;24.10;35.90;;;;;;484227;246;1279;-74
2022/11/15 04:08:37;;;;;;;;;;;24.20;35.50;;;;;;484120;246;1090;-74
2022/11/15 04:10:38;;;;;;;;;;;24.20;35.90;;;;;;484212;246;1647;-74
2022/11/15 04:12:40;;;;;;;;;;;24.30;35.70;;;;;;484212;246;1103;-74
2022/11/15 04:15:06;;;;;;;;;;;24.40;35.60;;;;;;484140;243;1387;-74
2022/11/15 04:16:42;;;;;;;;;;;24.40;35.80;;;;;;482550;246;1303;-74
2022/11/15 04:18:43;;;;;;;;;;;24.40;35.60;;;;;;484214;246;1216;-74
2022/11/15 04:25:23;;;;;;;;;;;24.40;35.50;;;;;;484191;246;1201;-74
2022/11/15 04:27:24;;;;;;;;;;;24.30;35.70;;;;;;484230;246;1138;-74
2022/11/15 04:29:35;;;;;;;;;;;24.30;35.40;;;;;;484266;246;1181;-74
2022/11/15 04:31:36;;;;;;;;;;;24.30;36.00;;;;;;484207;246;1232;-74
2022/11/15 04:33:38;;;;;;;;;;;24.20;35.60;;;;;;484170;246;1255;-74
2022/11/15 04:35:39;;;;;;;;;;;24.10;35.70;;;;;;484208;246;1165;-75
2022/11/15 04:37:40;;;;;;;;;;;24.00;36.20;;;;;;484264;246;1218;-75
2022/11/15 04:39:42;;;;;;;;;;;24.00;36.00;;;;;;484132;246;1214;-75
2022/11/15 04:41:43;;;;;;;;;;;23.80;36.20;;;;;;484282;246;1262;-75
2022/11/15 04:43:44;;;;;;;;;;;23.70;36.30;;;;;;484100;246;2256;-74
2022/11/15 04:45:46;;;;;;;;;;;23.70;36.60;;;;;;484184;246;1189;-74
2022/11/15 04:47:47;;;;;;;;;;;23.70;36.30;;;;;;484146;246;1272;-74
2022/11/15 04:49:48;;;;;;;;;;;23.70;37.40;;;;;;484158;246;1208;-74
2022/11/15 04:51:50;;;;;;;;;;;23.90;36.50;;;;;;484185;246;1274;-74
2022/11/15 04:53:51;;;;;;;;;;;23.90;36.80;;;;;;484188;246;1180;-74
2022/11/15 04:55:52;;;;;;;;;;;24.00;37.10;;;;;;484110;246;1205;-74
2022/11/15 04:57:54;;;;;;;;;;;24.00;36.10;;;;;;484057;246;1222;-74
2022/11/15 04:59:55;;;;;;;;;;;24.10;36.40;;;;;;484142;246;1150;-74
2022/11/15 05:01:56;;;;;;;;;;;24.10;36.00;;;;;;484143;246;1147;-74
2022/11/15 05:06:17;;;;;;;;;;;24.20;36.20;;;;;;484160;246;1216;-74
2022/11/15 05:08:18;;;;;;;;;;;24.30;35.80;;;;;;484236;246;1271;-75
2022/11/15 05:10:19;;;;;;;;;;;24.20;36.00;;;;;;484130;246;1203;-75
2022/11/15 05:12:21;;;;;;;;;;;24.10;35.60;;;;;;484155;246;1262;-75
2022/11/15 05:14:22;;;;;;;;;;;24.10;35.80;;;;;;484129;246;1192;-75
2022/11/15 05:16:23;;;;;;;;;;;24.10;35.40;;;;;;484195;246;1281;-75
2022/11/15 05:18:25;;;;;;;;;;;24.10;35.40;;;;;;484114;246;1300;-75
2022/11/15 05:20:26;;;;;;;;;;;24.10;36.40;;;;;;484169;246;1125;-75
2022/11/15 05:22:27;;;;;;;;;;;24.20;35.60;;;;;;484127;246;1174;-74
2022/11/15 05:24:29;;;;;;;;;;;24.20;36.30;;;;;;484209;246;2195;-74
2022/11/15 05:26:30;;;;;;;;;;;24.10;35.60;;;;;;484075;246;1147;-74
2022/11/15 05:28:31;;;;;;;;;;;24.20;36.20;;;;;;484046;246;1128;-74
2022/11/15 05:30:33;;;;;;;;;;;24.30;35.50;;;;;;484122;246;1155;-74
2022/11/15 05:32:34;;;;;;;;;;;24.20;35.90;;;;;;483883;246;1221;-74
2022/11/15 05:34:35;;;;;;;;;;;24.30;35.90;;;;;;483552;246;1092;-74
2022/11/15 05:36:37;;;;;;;;;;;24.30;35.70;;;;;;483863;246;1288;-74
2022/11/15 05:38:38;;;;;;;;;;;24.30;35.60;;;;;;484160;246;1195;-74
2022/11/15 05:40:39;;;;;;;;;;;24.30;36.10;;;;;;483964;246;1182;-74
2022/11/15 05:42:41;;;;;;;;;;;24.30;35.30;;;;;;484070;246;2187;-75
2022/11/15 05:44:42;;;;;;;;;;;24.30;35.90;;;;;;484118;246;1098;-74
2022/11/15 05:46:43;;;;;;;;;;;24.40;35.50;;;;;;484076;246;1183;-74
2022/11/15 05:48:45;;;;;;;;;;;24.40;35.50;;;;;;484047;246;1117;-74
2022/11/15 05:50:46;;;;;;;;;;;24.40;35.70;;;;;;484133;246;1248;-74
2022/11/15 05:52:47;;;;;;;;;;;24.40;36.10;;;;;;484171;246;1223;-74
2022/11/15 05:54:49;;;;;;;;;;;24.40;35.60;;;;;;484126;246;1176;-74
2022/11/15 05:56:50;;;;;;;;;;;24.50;35.90;;;;;;484108;246;1348;-74
2022/11/15 05:58:52;;;;;;;;;;;24.50;35.60;;;;;;483912;246;1135;-74
2022/11/15 06:00:53;;;;;;;;;;;24.50;35.80;;;;;;484187;246;1119;-74
2022/11/15 06:02:54;;;;;;;;;;;24.40;35.40;;;;;;484162;246;2156;-74
2022/11/15 06:04:56;;;;;;;;;;;24.40;35.60;;;;;;484134;246;1161;-74
2022/11/15 06:06:57;;;;;;;;;;;24.40;36.00;;;;;;484243;246;1272;-74
2022/11/15 06:08:58;;;;;;;;;;;24.30;35.60;;;;;;484040;246;1087;-74
2022/11/15 06:11:00;;;;;;;;;;;24.30;36.10;;;;;;483982;246;1232;-74
2022/11/15 06:13:01;;;;;;;;;;;24.20;36.20;;;;;;483998;246;1086;-74
2022/11/15 06:15:02;;;;;;;;;;;24.10;36.20;;;;;;484071;246;1053;-74
2022/11/15 06:17:04;;;;;;;;;;;24.10;35.90;;;;;;484157;246;1153;-74
2022/11/15 06:19:05;;;;;;;;;;;24.10;36.10;;;;;;484093;246;1112;-74
2022/11/15 06:21:06;;;;;;;;;;;24.00;36.20;;;;;;484115;246;1165;-74
2022/11/15 06:23:08;;;;;;;;;;;24.00;36.80;;;;;;483964;246;2199;-74
2022/11/15 06:25:09;;;;;;;;;;;24.00;36.40;;;;;;484130;246;1231;-74
2022/11/15 06:27:10;;;;;;;;;;;24.10;36.00;;;;;;483965;246;1174;-74
2022/11/15 06:29:12;;;;;;;;;;;24.20;36.80;;;;;;483989;246;1183;-74
2022/11/15 06:31:13;;;;;;;;;;;24.30;36.30;;;;;;484025;246;1127;-74
2022/11/15 06:33:14;;;;;;;;;;;24.30;37.40;;;;;;484018;246;1171;-74
2022/11/15 06:35:15;;;;;;;;;;;24.30;36.10;;;;;;484023;246;1199;-75
2022/11/15 06:37:17;;;;;;;;;;;24.30;36.20;;;;;;484088;246;1173;-74
2022/11/15 06:39:18;;;;;;;;;;;24.40;36.30;;;;;;484037;246;1157;-74
2022/11/15 06:41:20;;;;;;;;;;;24.40;35.90;;;;;;484015;246;1167;-74
2022/11/15 06:43:21;;;;;;;;;;;24.40;36.10;;;;;;484003;246;2204;-74
2022/11/15 06:45:22;;;;;;;;;;;24.40;35.70;;;;;;484047;246;1219;-74
2022/11/15 06:47:23;;;;;;;;;;;24.40;35.60;;;;;;484026;246;1183;-74
2022/11/15 06:49:25;;;;;;;;;;;24.40;35.90;;;;;;483990;246;1156;-74
2022/11/15 06:51:26;;;;;;;;;;;24.40;36.10;;;;;;484002;246;1168;-74
2022/11/15 06:53:27;;;;;;;;;;;24.40;35.50;;;;;;483840;246;1299;-74
2022/11/15 06:55:29;;;;;;;;;;;24.40;35.70;;;;;;484050;246;1137;-74
2022/11/15 06:57:30;;;;;;;;;;;24.40;35.60;;;;;;483933;246;1206;-74
2022/11/15 06:59:31;;;;;;;;;;;24.40;35.50;;;;;;483963;246;1159;-74
2022/11/15 07:01:33;;;;;;;;;;;24.30;35.50;;;;;;483958;246;1159;-74
2022/11/15 07:03:34;;;;;;;;;;;24.30;35.40;;;;;;483896;246;2188;-74
2022/11/15 07:05:35;;;;;;;;;;;24.30;35.50;;;;;;483927;246;1134;-74
2022/11/15 07:07:37;;;;;;;;;;;24.20;35.90;;;;;;483992;246;1232;-74
2022/11/15 07:09:38;;;;;;;;;;;24.20;35.80;;;;;;484015;246;1163;-75
2022/11/15 07:11:39;;;;;;;;;;;24.20;35.80;;;;;;483758;246;1261;-74
2022/11/15 07:13:41;;;;;;;;;;;24.20;36.00;;;;;;483924;246;1146;-74
2022/11/15 07:15:42;;;;;;;;;;;24.20;35.60;;;;;;483983;246;1276;-74
2022/11/15 07:17:43;;;;;;;;;;;24.20;35.90;;;;;;483960;246;1208;-74
2022/11/15 07:19:45;;;;;;;;;;;24.10;35.50;;;;;;483973;246;1260;-74
2022/11/15 07:21:46;;;;;;;;;;;24.10;35.60;;;;;;483963;246;1112;-74
2022/11/15 07:23:47;;;;;;;;;;;24.10;35.60;;;;;;483940;246;2160;-74
2022/11/15 07:25:48;;;;;;;;;;;24.10;36.20;;;;;;483989;246;1236;-74
2022/11/15 07:27:50;;;;;;;;;;;24.10;35.60;;;;;;483938;246;1199;-74
2022/11/15 07:29:51;;;;;;;;;;;24.00;36.10;;;;;;483817;246;1155;-74
2022/11/15 07:31:52;;;;;;;;;;;24.00;35.60;;;;;;483754;246;1183;-74
2022/11/15 07:33:54;;;;;;;;;;;23.90;36.40;;;;;;483857;242;1107;-74
2022/11/15 07:35:55;;;;;;;;;;;23.90;35.80;;;;;;483995;246;1129;-74
2022/11/15 07:37:56;;;;;;;;;;;24.00;36.40;;;;;;483999;246;1187;-74
2022/11/15 07:39:58;;;;;;;;;;;24.00;36.30;;;;;;483990;246;1167;-75
2022/11/15 07:44:20;;;;;;;;;;;24.10;35.80;;;;;;483739;246;2179;-75
2022/11/15 07:46:21;;;;;;;;;;;24.00;35.90;;;;;;483879;246;1319;-74
2022/11/15 07:48:22;;;;;;;;;;;24.10;36.20;;;;;;483894;246;1146;-74
2022/11/15 07:50:24;;;;;;;;;;;24.10;36.10;;;;;;483866;246;1181;-74
2022/11/15 07:52:25;;;;;;;;;;;24.10;35.80;;;;;;483887;246;1220;-74
2022/11/15 07:54:26;;;;;;;;;;;24.20;36.10;;;;;;483604;246;1124;-74
2022/11/15 07:56:28;;;;;;;;;;;24.30;35.70;;;;;;483680;246;1221;-74
2022/11/15 07:58:29;;;;;;;;;;;24.30;35.80;;;;;;483637;246;1266;-74
2022/11/15 08:00:30;;;;;;;;;;;24.30;36.10;;;;;;483507;246;1096;-75
2022/11/15 08:02:32;;;;;;;;;;;24.30;35.80;;;;;;483537;246;1338;-74
2022/11/15 08:04:33;;;;;;;;;;;24.30;36.00;;;;;;483494;246;2217;-74
2022/11/15 08:06:34;;;;;;;;;;;24.40;35.50;;;;;;483720;246;1188;-74
2022/11/15 08:08:35;;;;;;;;;;;24.40;36.00;;;;;;483675;246;1121;-74
2022/11/15 08:10:37;;;;;;;;;;;24.40;35.60;;;;;;483612;246;1131;-74
2022/11/15 08:12:38;;;;;;;;;;;24.30;35.40;;;;;;483850;246;1149;-74
2022/11/15 08:14:39;;;;;;;;;;;24.30;35.90;;;;;;483632;246;1321;-74
2022/11/15 08:16:41;;;;;;;;;;;24.30;35.60;;;;;;483909;246;1316;-74
2022/11/15 08:18:42;;;;;;;;;;;24.30;35.40;;;;;;483711;246;1118;-74
2022/11/15 08:20:43;;;;;;;;;;;24.30;35.80;;;;;;483781;246;1223;-74
2022/11/15 08:22:45;;;;;;;;;;;24.30;35.50;;;;;;483732;246;1176;-74
2022/11/15 08:24:46;;;;;;;;;;;24.30;35.50;;;;;;483702;246;2228;-74
2022/11/15 08:26:47;;;;;;;;;;;24.20;35.90;;;;;;483541;246;1081;-74
2022/11/15 08:28:49;;;;;;;;;;;24.20;35.50;;;;;;483459;246;1083;-74
2022/11/15 08:30:50;;;;;;;;;;;24.20;35.70;;;;;;483246;246;1354;-74
2022/11/15 08:32:51;;;;;;;;;;;24.30;35.90;;;;;;483193;246;1148;-74
2022/11/15 08:34:53;;;;;;;;;;;24.30;35.50;;;;;;483207;246;1076;-74
2022/11/15 08:36:54;;;;;;;;;;;24.20;35.90;;;;;;483357;246;1235;-74
2022/11/15 08:38:55;;;;;;;;;;;24.30;35.70;;;;;;483561;246;1340;-74
2022/11/15 08:40:57;;;;;;;;;;;24.30;35.90;;;;;;483397;246;1257;-74
2022/11/15 08:43:02;;;;;;;;;;;24.30;35.60;;;;;;483484;246;1161;-74
2022/11/15 08:45:00;;;;;;;;;;;24.30;35.50;;;;;;483152;246;2179;-74
2022/11/15 08:47:01;;;;;;;;;;;24.30;35.50;;;;;;483656;246;1208;-74
2022/11/15 08:49:03;;;;;;;;;;;24.30;36.00;;;;;;483617;246;1287;-74
2022/11/15 08:51:04;;;;;;;;;;;24.30;35.50;;;;;;483726;246;1175;-74
2022/11/15 08:53:06;;;;;;;;;;;24.40;36.00;;;;;;483601;246;1191;-74
2022/11/15 08:55:07;;;;;;;;;;;24.40;35.50;;;;;;483764;246;1296;-74
2022/11/15 08:57:09;;;;;;;;;;;24.40;36.00;;;;;;483506;246;1094;-74
2022/11/15 08:59:10;;;;;;;;;;;24.40;35.70;;;;;;483634;246;1231;-74
2022/11/15 09:01:12;;;;;;;;;;;24.40;36.10;;;;;;483745;246;1206;-74
2022/11/15 09:03:13;;;;;;;;;;;24.30;36.20;;;;;;483737;246;1159;-74
2022/11/15 09:05:15;;;;;;;;;;;24.30;35.80;;;;;;483793;246;2197;-74
2022/11/15 09:07:17;;;;;;;;;;;24.30;36.40;;;;;;483611;246;1134;-74
2022/11/15 09:09:18;;;;;;;;;;;24.30;36.00;;;;;;483844;246;1264;-74
2022/11/15 09:11:21;;;;;;;;;;;24.30;36.50;;;;;;483857;246;1259;-74
2022/11/15 09:13:21;;;;;;;;;;;24.30;36.20;;;;;;483535;246;1361;-74
2022/11/15 09:15:22;;;;;;;;;;;24.20;36.40;;;;;;483689;246;1152;-74
2022/11/15 09:17:23;;;;;;;;;;;24.30;36.30;;;;;;483682;246;1229;-74
2022/11/15 09:19:25;;;;;;;;;;;24.20;36.50;;;;;;483660;246;1139;-74
2022/11/15 09:21:26;;;;;;;;;;;24.20;36.10;;;;;;483767;246;1217;-74
2022/11/15 09:23:27;;;;;;;;;;;24.20;36.20;;;;;;483511;246;1430;-73
2022/11/15 09:25:28;;;;;;;;;;;24.20;36.60;;;;;;483674;246;2187;-74
2022/11/15 09:27:30;;;;;;;;;;;24.20;36.30;;;;;;483789;246;1159;-74
2022/11/15 09:29:31;;;;;;;;;;;24.20;36.40;;;;;;483670;246;1186;-74
2022/11/15 09:31:33;;;;;;;;;;;24.20;36.30;;;;;;483737;246;1119;-74
2022/11/15 09:33:34;;;;;;;;;;;24.20;36.20;;;;;;483684;246;1112;-74
2022/11/15 09:35:35;;;;;;;;;;;24.20;36.50;;;;;;483761;246;1345;-74
2022/11/15 09:37:37;;;;;;;;;;;24.20;36.50;;;;;;483750;246;1187;-74
2022/11/15 09:39:38;;;;;;;;;;;24.20;36.20;;;;;;483833;246;1115;-74
2022/11/15 09:41:39;;;;;;;;;;;24.30;36.60;;;;;;483644;246;1229;-74
2022/11/15 09:43:41;;;;;;;;;;;24.30;36.20;;;;;;483556;246;1110;-74
2022/11/15 09:45:42;;;;;;;;;;;24.30;36.10;;;;;;483584;246;2185;-74
2022/11/15 09:47:43;;;;;;;;;;;24.30;36.40;;;;;;483690;246;1147;-74
2022/11/15 09:49:45;;;;;;;;;;;24.30;36.00;;;;;;483555;246;1185;-74
2022/11/15 09:51:49;;;;;;;;;;;24.30;36.00;;;;;;483796;246;1153;-74
2022/11/15 09:53:50;;;;;;;;;;;24.30;36.20;;;;;;483558;246;1234;-74
2022/11/15 09:55:52;;;;;;;;;;;24.30;36.20;;;;;;483868;246;1165;-74
2022/11/15 09:57:53;;;;;;;;;;;24.30;36.30;;;;;;483765;246;1155;-74
2022/11/15 09:59:54;;;;;;;;;;;24.30;36.20;;;;;;483593;246;1230;-74
2022/11/15 10:01:55;;;;;;;;;;;24.30;36.10;;;;;;483883;246;1170;-74
2022/11/15 10:03:57;;;;;;;;;;;24.30;36.40;;;;;;483817;246;1160;-74
2022/11/15 10:05:58;;;;;;;;;;;24.30;36.10;;;;;;483677;246;2125;-74
2022/11/15 10:07:59;;;;;;;;;;;24.20;36.20;;;;;;483658;246;1059;-75
2022/11/15 10:10:01;;;;;;;;;;;24.30;36.50;;;;;;483611;246;1524;-74
2022/11/15 10:12:02;;;;;;;;;;;24.20;36.40;;;;;;482716;246;5093;-74
2022/11/15 10:14:03;;;;;;;;;;;24.30;36.40;;;;;;490484;243;1120;-74
2022/11/15 10:16:05;;;;;;;;;;;24.40;36.30;;;;;;490584;242;1227;-74
2022/11/15 10:18:06;;;;;;;;;;;24.40;36.10;;;;;;490301;242;1182;-74
2022/11/15 10:20:07;;;;;;;;;;;24.40;36.10;;;;;;490320;242;1149;-74
2022/11/15 10:22:09;;;;;;;;;;;24.40;36.00;;;;;;490409;242;1098;-74
2022/11/15 10:24:10;;;;;;;;;;;24.40;35.80;;;;;;490550;242;1135;-74
2022/11/15 10:26:11;;;;;;;;;;;24.50;36.00;;;;;;490528;242;2106;-74
2022/11/15 10:28:13;;;;;;;;;;;24.40;36.10;;;;;;490552;242;1256;-74
2022/11/15 10:30:14;;;;;;;;;;;24.40;36.00;;;;;;490561;242;1202;-74
2022/11/15 10:32:16;;;;;;;;;;;24.20;36.40;;;;;;490553;242;1227;-74
2022/11/15 10:34:18;;;;;;;;;;;24.20;36.30;;;;;;490369;242;1152;-74
2022/11/15 10:36:18;;;;;;;;;;;24.10;36.00;;;;;;490376;242;1412;-74
2022/11/15 10:38:20;;;;;;;;;;;24.20;36.10;;;;;;490683;242;1201;-74
2022/11/15 10:40:21;;;;;;;;;;;24.10;36.10;;;;;;490477;242;1173;-74
2022/11/15 10:42:22;;;;;;;;;;;24.00;36.20;;;;;;490652;242;1199;-74
2022/11/15 10:44:24;;;;;;;;;;;23.90;36.30;;;;;;490441;242;1201;-74
2022/11/15 10:46:25;;;;;;;;;;;23.90;36.40;;;;;;490385;242;2211;-74
2022/11/15 10:48:26;;;;;;;;;;;23.90;36.40;;;;;;490271;242;1488;-74
2022/11/15 10:50:28;;;;;;;;;;;23.80;36.40;;;;;;490310;242;1250;-74
2022/11/15 10:52:29;;;;;;;;;;;23.70;36.40;;;;;;490445;242;1187;-74
2022/11/15 10:54:30;;;;;;;;;;;23.70;36.50;;;;;;490659;242;1181;-74
2022/11/15 10:56:32;;;;;;;;;;;23.70;36.40;;;;;;490196;242;1135;-74
2022/11/15 10:58:33;;;;;;;;;;;23.70;36.20;;;;;;490399;242;1177;-74
2022/11/15 11:00:34;;;;;;;;;;;23.60;36.40;;;;;;490450;242;1133;-74
2022/11/15 11:02:36;;;;;;;;;;;23.60;36.30;;;;;;490283;242;1195;-74
2022/11/15 11:04:37;;;;;;;;;;;23.70;36.20;;;;;;490436;242;2137;-74
2022/11/15 11:06:38;;;;;;;;;;;23.80;36.10;;;;;;490318;242;1220;-74
2022/11/15 11:08:40;;;;;;;;;;;23.90;35.90;;;;;;490376;242;1619;-74
2022/11/15 11:10:41;;;;;;;;;;;23.90;36.00;;;;;;490376;242;1237;-74
2022/11/15 11:12:42;;;;;;;;;;;24.00;35.90;;;;;;490552;242;1279;-74
2022/11/15 11:14:44;;;;;;;;;;;24.00;35.90;;;;;;490344;242;1068;-74
2022/11/15 11:16:45;;;;;;;;;;;24.00;35.90;;;;;;490469;242;1261;-74
2022/11/15 11:18:46;;;;;;;;;;;24.00;35.80;;;;;;490562;242;1187;-74
2022/11/15 11:20:48;;;;;;;;;;;24.00;35.80;;;;;;490504;242;1197;-74
2022/11/15 11:22:49;;;;;;;;;;;24.00;35.80;;;;;;490353;242;1594;-74
2022/11/15 11:24:50;;;;;;;;;;;24.10;35.70;;;;;;490460;242;2153;-74
2022/11/15 11:26:52;;;;;;;;;;;24.00;35.70;;;;;;490393;242;1143;-74
2022/11/15 11:28:53;;;;;;;;;;;24.00;35.80;;;;;;490482;242;1133;-74
2022/11/15 11:30:54;;;;;;;;;;;24.00;36.10;;;;;;490296;242;1364;-74
2022/11/15 11:32:55;;;;;;;;;;;24.00;36.00;;;;;;490387;242;1166;-74
2022/11/15 11:34:57;;;;;;;;;;;24.00;36.10;;;;;;490311;242;1130;-74
2022/11/15 11:36:58;;;;;;;;;;;24.00;36.10;;;;;;490249;242;1341;-74
2022/11/15 11:38:59;;;;;;;;;;;24.00;36.20;;;;;;490464;242;1129;-74
2022/11/15 11:41:01;;;;;;;;;;;24.00;36.20;;;;;;490305;242;1118;-74
2022/11/15 11:43:02;;;;;;;;;;;24.10;36.10;;;;;;490232;242;1219;-74
2022/11/15 11:45:04;;;;;;;;;;;24.10;36.20;;;;;;490263;242;2177;-74
2022/11/15 11:47:05;;;;;;;;;;;24.10;36.10;;;;;;490248;242;1148;-74
2022/11/15 11:49:06;;;;;;;;;;;24.00;36.20;;;;;;490361;242;1245;-74
2022/11/15 11:51:08;;;;;;;;;;;24.10;36.20;;;;;;490449;242;1319;-74
2022/11/15 11:53:09;;;;;;;;;;;24.00;36.30;;;;;;490263;242;1183;-74
2022/11/15 11:55:10;;;;;;;;;;;24.00;36.40;;;;;;490528;242;1216;-74
2022/11/15 11:57:12;;;;;;;;;;;23.90;36.40;;;;;;490415;242;1148;-74
2022/11/15 11:59:13;;;;;;;;;;;23.90;36.60;;;;;;490267;242;1278;-74
2022/11/15 12:01:14;;;;;;;;;;;23.80;36.70;;;;;;490494;242;1162;-74
2022/11/15 12:03:16;;;;;;;;;;;23.90;36.70;;;;;;490387;242;1165;-74
2022/11/15 12:05:17;;;;;;;;;;;23.80;36.70;;;;;;490316;242;2168;-74
2022/11/15 12:07:18;;;;;;;;;;;23.70;36.80;;;;;;490426;242;1160;-74
2022/11/15 12:09:20;;;;;;;;;;;23.70;36.80;;;;;;490434;242;1131;-74